sensor_id;sensor_type;location;lat;lon;timestamp;temperature;humidity
68051;DHT22;54839;51.364;7.246;2022-10-22T00:01:03;13.30;99.90
68051;DHT22;54839;51.364;7.246;2022-10-22T00:03:29;13.30;99.90
68051;DHT22;54839;51.364;7.246;2022-10-22T00:05:55;13.30;99.90
68051;DHT22;54839;51.364;7.246;2022-10-22T00:08:20;13.40;99.90
68051;DHT22;54839;51.364;7.246;2022-10-22T00:10:46;13.30;99.90
68051;DHT22;54839;51.364;7.246;2022-10-22T00:13:12;13.30;99.90
68051;DHT22;54839;51.364;7.246;2022-10-22T00:15:37;13.30;99.90
68051;DHT22;54839;51.364;7.246;2022-10-22T00:18:03;13.30;99.90
68051;DHT22;54839;51.364;7.246;2022-10-22T00:20:28;13.30;99.90
68051;DHT22;54839;51.364;7.246;2022-10-22T00:22:54;13.30;99.90
68051;DHT22;54839;51.364;7.246;2022-10-22T00:25:20;13.40;99.90
68051;DHT22;54839;51.364;7.246;2022-10-22T00:27:45;13.30;99.90
68051;DHT22;54839;51.364;7.246;2022-10-22T00:30:11;13.30;99.90
68051;DHT22;54839;51.364;7.246;2022-10-22T00:32:36;13.30;99.90
68051;DHT22;54839;51.364;7.246;2022-10-22T00:35:02;13.30;99.90
68051;DHT22;54839;51.364;7.246;2022-10-22T00:37:28;13.30;99.90
68051;DHT22;54839;51.364;7.246;2022-10-22T00:39:54;13.30;99.90
68051;DHT22;54839;51.364;7.246;2022-10-22T00:42:22;13.30;99.90
68051;DHT22;54839;51.364;7.246;2022-10-22T00:50:45;13.40;99.90
68051;DHT22;54839;51.364;7.246;2022-10-22T00:53:16;13.30;99.90
68051;DHT22;54839;51.364;7.246;2022-10-22T00:55:43;13.30;99.90
68051;DHT22;54839;51.364;7.246;2022-10-22T00:58:09;13.30;99.90
68051;DHT22;54839;51.364;7.246;2022-10-22T01:00:36;13.30;99.90
68051;DHT22;54839;51.364;7.246;2022-10-22T01:03:02;13.30;99.90
68051;DHT22;54839;51.364;7.246;2022-10-22T01:05:30;13.30;99.90
68051;DHT22;54839;51.364;7.246;2022-10-22T01:07:56;13.30;99.90
68051;DHT22;54839;51.364;7.246;2022-10-22T01:10:45;13.30;99.90
68051;DHT22;54839;51.364;7.246;2022-10-22T01:13:32;13.30;99.90
68051;DHT22;54839;51.364;7.246;2022-10-22T01:16:09;13.40;99.90
68051;DHT22;54839;51.364;7.246;2022-10-22T01:21:34;13.40;99.90
68051;DHT22;54839;51.364;7.246;2022-10-22T01:24:38;13.30;99.90
68051;DHT22;54839;51.364;7.246;2022-10-22T01:27:16;13.40;99.90
68051;DHT22;54839;51.364;7.246;2022-10-22T01:29:49;13.40;99.90
68051;DHT22;54839;51.364;7.246;2022-10-22T01:32:24;13.50;99.90
68051;DHT22;54839;51.364;7.246;2022-10-22T01:34:55;13.40;99.90
68051;DHT22;54839;51.364;7.246;2022-10-22T01:37:24;13.50;99.90
68051;DHT22;54839;51.364;7.246;2022-10-22T01:39:53;13.60;99.90
68051;DHT22;54839;51.364;7.246;2022-10-22T01:42:20;13.50;99.90
68051;DHT22;54839;51.364;7.246;2022-10-22T01:44:45;13.50;99.90
68051;DHT22;54839;51.364;7.246;2022-10-22T01:50:26;13.40;99.90
68051;DHT22;54839;51.364;7.246;2022-10-22T01:56:01;13.40;99.90
68051;DHT22;54839;51.364;7.246;2022-10-22T01:58:52;13.40;99.90
68051;DHT22;54839;51.364;7.246;2022-10-22T02:04:29;13.40;99.90
68051;DHT22;54839;51.364;7.246;2022-10-22T02:07:00;13.40;99.90
68051;DHT22;54839;51.364;7.246;2022-10-22T02:09:28;13.30;99.90
68051;DHT22;54839;51.364;7.246;2022-10-22T02:11:55;13.30;99.90
68051;DHT22;54839;51.364;7.246;2022-10-22T02:14:24;13.40;99.90
68051;DHT22;54839;51.364;7.246;2022-10-22T02:16:52;13.50;99.90
68051;DHT22;54839;51.364;7.246;2022-10-22T02:21:57;13.60;99.90
68051;DHT22;54839;51.364;7.246;2022-10-22T02:24:23;13.50;99.90
68051;DHT22;54839;51.364;7.246;2022-10-22T02:27:20;13.50;99.90
68051;DHT22;54839;51.364;7.246;2022-10-22T02:30:02;13.50;99.90
68051;DHT22;54839;51.364;7.246;2022-10-22T02:32:34;13.40;99.90
68051;DHT22;54839;51.364;7.246;2022-10-22T02:35:02;13.40;99.90
68051;DHT22;54839;51.364;7.246;2022-10-22T02:37:28;13.40;99.90
68051;DHT22;54839;51.364;7.246;2022-10-22T02:39:54;13.50;99.90
68051;DHT22;54839;51.364;7.246;2022-10-22T02:42:22;13.70;99.90
68051;DHT22;54839;51.364;7.246;2022-10-22T02:44:48;13.60;99.90
68051;DHT22;54839;51.364;7.246;2022-10-22T02:47:13;13.60;99.90
68051;DHT22;54839;51.364;7.246;2022-10-22T02:49:39;13.70;99.90
68051;DHT22;54839;51.364;7.246;2022-10-22T02:52:04;13.60;99.90
68051;DHT22;54839;51.364;7.246;2022-10-22T02:54:30;13.70;99.90
68051;DHT22;54839;51.364;7.246;2022-10-22T02:56:55;13.70;99.90
68051;DHT22;54839;51.364;7.246;2022-10-22T02:59:21;13.60;99.90
68051;DHT22;54839;51.364;7.246;2022-10-22T03:01:46;13.60;99.90
68051;DHT22;54839;51.364;7.246;2022-10-22T03:04:12;13.60;99.90
68051;DHT22;54839;51.364;7.246;2022-10-22T03:06:37;13.50;99.90
68051;DHT22;54839;51.364;7.246;2022-10-22T03:09:03;13.60;99.90
68051;DHT22;54839;51.364;7.246;2022-10-22T03:11:28;13.60;99.90
68051;DHT22;54839;51.364;7.246;2022-10-22T03:13:54;13.50;99.90
68051;DHT22;54839;51.364;7.246;2022-10-22T03:16:19;13.60;99.90
68051;DHT22;54839;51.364;7.246;2022-10-22T03:18:45;13.50;99.90
68051;DHT22;54839;51.364;7.246;2022-10-22T03:23:59;13.70;99.90
68051;DHT22;54839;51.364;7.246;2022-10-22T03:26:25;13.60;99.90
68051;DHT22;54839;51.364;7.246;2022-10-22T03:28:51;13.50;99.90
68051;DHT22;54839;51.364;7.246;2022-10-22T03:31:18;13.40;99.90
68051;DHT22;54839;51.364;7.246;2022-10-22T03:33:43;13.40;99.90
68051;DHT22;54839;51.364;7.246;2022-10-22T03:36:09;13.40;99.90
68051;DHT22;54839;51.364;7.246;2022-10-22T03:38:36;13.30;99.90
68051;DHT22;54839;51.364;7.246;2022-10-22T03:41:03;13.30;99.90
68051;DHT22;54839;51.364;7.246;2022-10-22T03:43:29;13.30;99.90
68051;DHT22;54839;51.364;7.246;2022-10-22T03:45:54;13.10;99.90
68051;DHT22;54839;51.364;7.246;2022-10-22T03:48:20;13.10;99.90
68051;DHT22;54839;51.364;7.246;2022-10-22T03:50:45;13.10;99.90
68051;DHT22;54839;51.364;7.246;2022-10-22T03:53:11;13.10;99.90
68051;DHT22;54839;51.364;7.246;2022-10-22T03:55:37;13.10;99.90
68051;DHT22;54839;51.364;7.246;2022-10-22T03:58:03;13.20;99.90
68051;DHT22;54839;51.364;7.246;2022-10-22T04:00:29;13.20;99.90
68051;DHT22;54839;51.364;7.246;2022-10-22T04:02:54;13.20;99.90
68051;DHT22;54839;51.364;7.246;2022-10-22T04:05:20;13.30;99.90
68051;DHT22;54839;51.364;7.246;2022-10-22T04:07:45;13.30;99.90
68051;DHT22;54839;51.364;7.246;2022-10-22T04:10:11;13.20;99.90
68051;DHT22;54839;51.364;7.246;2022-10-22T04:12:36;13.20;99.90
68051;DHT22;54839;51.364;7.246;2022-10-22T04:15:03;13.10;99.90
68051;DHT22;54839;51.364;7.246;2022-10-22T04:17:33;13.10;99.90
68051;DHT22;54839;51.364;7.246;2022-10-22T04:19:59;13.10;99.90
68051;DHT22;54839;51.364;7.246;2022-10-22T04:22:25;13.00;99.90
68051;DHT22;54839;51.364;7.246;2022-10-22T04:24:50;12.90;99.90
68051;DHT22;54839;51.364;7.246;2022-10-22T04:27:16;12.90;99.90
68051;DHT22;54839;51.364;7.246;2022-10-22T04:29:41;12.90;99.90
68051;DHT22;54839;51.364;7.246;2022-10-22T04:32:07;12.80;99.90
68051;DHT22;54839;51.364;7.246;2022-10-22T04:34:32;12.90;99.90
68051;DHT22;54839;51.364;7.246;2022-10-22T04:36:58;12.80;99.90
68051;DHT22;54839;51.364;7.246;2022-10-22T04:39:23;12.80;99.90
68051;DHT22;54839;51.364;7.246;2022-10-22T04:41:49;12.70;99.90
68051;DHT22;54839;51.364;7.246;2022-10-22T04:44:14;12.70;99.90
68051;DHT22;54839;51.364;7.246;2022-10-22T04:46:40;12.70;99.90
68051;DHT22;54839;51.364;7.246;2022-10-22T04:49:06;12.70;99.90
68051;DHT22;54839;51.364;7.246;2022-10-22T04:51:31;12.70;99.90
68051;DHT22;54839;51.364;7.246;2022-10-22T04:53:57;12.60;99.90
68051;DHT22;54839;51.364;7.246;2022-10-22T04:56:30;12.70;99.90
68051;DHT22;54839;51.364;7.246;2022-10-22T04:58:58;12.70;99.90
68051;DHT22;54839;51.364;7.246;2022-10-22T05:01:36;12.70;99.90
68051;DHT22;54839;51.364;7.246;2022-10-22T05:04:03;12.90;99.90
68051;DHT22;54839;51.364;7.246;2022-10-22T05:06:30;12.90;99.90
68051;DHT22;54839;51.364;7.246;2022-10-22T05:08:58;12.90;99.90
68051;DHT22;54839;51.364;7.246;2022-10-22T05:11:31;12.90;99.90
68051;DHT22;54839;51.364;7.246;2022-10-22T05:13:59;12.80;99.90
68051;DHT22;54839;51.364;7.246;2022-10-22T05:16:26;12.90;99.90
68051;DHT22;54839;51.364;7.246;2022-10-22T05:18:52;13.00;99.90
68051;DHT22;54839;51.364;7.246;2022-10-22T05:21:19;12.90;99.90
68051;DHT22;54839;51.364;7.246;2022-10-22T05:23:47;13.20;99.90
68051;DHT22;54839;51.364;7.246;2022-10-22T05:26:16;13.20;99.90
68051;DHT22;54839;51.364;7.246;2022-10-22T05:28:42;13.20;99.90
68051;DHT22;54839;51.364;7.246;2022-10-22T05:31:10;13.10;99.90
68051;DHT22;54839;51.364;7.246;2022-10-22T05:33:36;13.00;99.90
68051;DHT22;54839;51.364;7.246;2022-10-22T05:36:02;13.00;99.90
68051;DHT22;54839;51.364;7.246;2022-10-22T05:38:28;13.10;99.90
68051;DHT22;54839;51.364;7.246;2022-10-22T05:41:14;13.10;99.90
68051;DHT22;54839;51.364;7.246;2022-10-22T05:43:40;13.00;99.90
68051;DHT22;54839;51.364;7.246;2022-10-22T05:46:11;13.00;99.90
68051;DHT22;54839;51.364;7.246;2022-10-22T05:48:37;13.00;99.90
68051;DHT22;54839;51.364;7.246;2022-10-22T05:51:06;12.90;99.90
68051;DHT22;54839;51.364;7.246;2022-10-22T05:53:33;12.90;99.90
68051;DHT22;54839;51.364;7.246;2022-10-22T05:56:03;13.00;99.90
68051;DHT22;54839;51.364;7.246;2022-10-22T05:58:29;13.00;99.90
68051;DHT22;54839;51.364;7.246;2022-10-22T06:01:01;12.90;99.90
68051;DHT22;54839;51.364;7.246;2022-10-22T06:03:27;13.10;99.90
68051;DHT22;54839;51.364;7.246;2022-10-22T06:05:53;12.90;99.90
68051;DHT22;54839;51.364;7.246;2022-10-22T06:08:19;12.90;99.90
68051;DHT22;54839;51.364;7.246;2022-10-22T06:10:44;12.80;99.90
68051;DHT22;54839;51.364;7.246;2022-10-22T06:13:10;12.80;99.90
68051;DHT22;54839;51.364;7.246;2022-10-22T06:15:35;12.80;99.90
68051;DHT22;54839;51.364;7.246;2022-10-22T06:18:01;12.70;99.90
68051;DHT22;54839;51.364;7.246;2022-10-22T06:20:26;12.90;99.90
68051;DHT22;54839;51.364;7.246;2022-10-22T06:22:52;12.70;99.90
68051;DHT22;54839;51.364;7.246;2022-10-22T06:25:17;12.80;99.90
68051;DHT22;54839;51.364;7.246;2022-10-22T06:27:43;12.80;99.90
68051;DHT22;54839;51.364;7.246;2022-10-22T06:30:13;12.80;99.90
68051;DHT22;54839;51.364;7.246;2022-10-22T06:32:38;12.80;99.90
68051;DHT22;54839;51.364;7.246;2022-10-22T06:35:04;12.80;99.90
68051;DHT22;54839;51.364;7.246;2022-10-22T06:37:30;13.00;99.90
68051;DHT22;54839;51.364;7.246;2022-10-22T06:39:55;12.90;99.90
68051;DHT22;54839;51.364;7.246;2022-10-22T06:42:21;12.90;99.90
68051;DHT22;54839;51.364;7.246;2022-10-22T06:44:46;13.00;99.90
68051;DHT22;54839;51.364;7.246;2022-10-22T06:47:12;13.00;99.90
68051;DHT22;54839;51.364;7.246;2022-10-22T06:49:37;13.10;99.90
68051;DHT22;54839;51.364;7.246;2022-10-22T06:52:03;13.20;99.90
68051;DHT22;54839;51.364;7.246;2022-10-22T06:54:28;13.30;99.90
68051;DHT22;54839;51.364;7.246;2022-10-22T06:56:54;13.40;99.90
68051;DHT22;54839;51.364;7.246;2022-10-22T06:59:19;13.40;99.90
68051;DHT22;54839;51.364;7.246;2022-10-22T07:01:45;13.50;99.90
68051;DHT22;54839;51.364;7.246;2022-10-22T07:04:10;13.70;99.90
68051;DHT22;54839;51.364;7.246;2022-10-22T07:06:36;13.60;99.90
68051;DHT22;54839;51.364;7.246;2022-10-22T07:09:01;13.70;99.90
68051;DHT22;54839;51.364;7.246;2022-10-22T07:11:29;13.70;99.90
68051;DHT22;54839;51.364;7.246;2022-10-22T07:13:58;13.70;99.90
68051;DHT22;54839;51.364;7.246;2022-10-22T07:16:23;13.70;99.90
68051;DHT22;54839;51.364;7.246;2022-10-22T07:18:49;13.70;99.90
68051;DHT22;54839;51.364;7.246;2022-10-22T07:21:17;13.70;99.90
68051;DHT22;54839;51.364;7.246;2022-10-22T07:23:43;13.70;99.90
68051;DHT22;54839;51.364;7.246;2022-10-22T07:26:12;13.90;99.90
68051;DHT22;54839;51.364;7.246;2022-10-22T07:28:38;13.80;99.90
68051;DHT22;54839;51.364;7.246;2022-10-22T07:31:06;13.90;99.90
68051;DHT22;54839;51.364;7.246;2022-10-22T07:33:32;14.10;99.90
68051;DHT22;54839;51.364;7.246;2022-10-22T07:35:59;14.00;99.90
68051;DHT22;54839;51.364;7.246;2022-10-22T07:38:25;14.10;99.90
68051;DHT22;54839;51.364;7.246;2022-10-22T07:40:51;14.30;99.90
68051;DHT22;54839;51.364;7.246;2022-10-22T07:43:16;14.30;99.90
68051;DHT22;54839;51.364;7.246;2022-10-22T07:45:42;14.40;99.90
68051;DHT22;54839;51.364;7.246;2022-10-22T07:48:07;14.40;99.90
68051;DHT22;54839;51.364;7.246;2022-10-22T07:50:33;14.60;99.90
68051;DHT22;54839;51.364;7.246;2022-10-22T07:52:58;14.70;99.90
68051;DHT22;54839;51.364;7.246;2022-10-22T07:55:24;15.00;99.90
68051;DHT22;54839;51.364;7.246;2022-10-22T07:57:50;15.00;99.90
68051;DHT22;54839;51.364;7.246;2022-10-22T08:00:16;15.30;99.90
68051;DHT22;54839;51.364;7.246;2022-10-22T08:02:41;15.40;99.90
68051;DHT22;54839;51.364;7.246;2022-10-22T08:05:07;15.40;99.90
68051;DHT22;54839;51.364;7.246;2022-10-22T08:07:32;15.50;99.90
68051;DHT22;54839;51.364;7.246;2022-10-22T08:09:58;15.40;99.90
68051;DHT22;54839;51.364;7.246;2022-10-22T08:12:24;15.40;99.90
68051;DHT22;54839;51.364;7.246;2022-10-22T08:14:49;15.40;99.90
68051;DHT22;54839;51.364;7.246;2022-10-22T08:17:15;15.40;99.90
68051;DHT22;54839;51.364;7.246;2022-10-22T08:19:40;15.40;99.90
68051;DHT22;54839;51.364;7.246;2022-10-22T08:22:06;15.50;99.90
68051;DHT22;54839;51.364;7.246;2022-10-22T08:24:32;15.50;99.90
68051;DHT22;54839;51.364;7.246;2022-10-22T08:26:57;15.60;99.90
68051;DHT22;54839;51.364;7.246;2022-10-22T08:29:23;15.80;99.90
68051;DHT22;54839;51.364;7.246;2022-10-22T08:31:51;15.70;99.90
68051;DHT22;54839;51.364;7.246;2022-10-22T08:34:16;15.80;99.90
68051;DHT22;54839;51.364;7.246;2022-10-22T08:36:42;15.80;99.90
68051;DHT22;54839;51.364;7.246;2022-10-22T08:39:08;16.00;99.90
68051;DHT22;54839;51.364;7.246;2022-10-22T08:50:12;16.10;99.90
68051;DHT22;54839;51.364;7.246;2022-10-22T08:52:41;16.10;99.90
68051;DHT22;54839;51.364;7.246;2022-10-22T08:55:13;15.90;99.90
68051;DHT22;54839;51.364;7.246;2022-10-22T09:00:43;15.80;99.90
68051;DHT22;54839;51.364;7.246;2022-10-22T09:03:26;15.70;99.90
68051;DHT22;54839;51.364;7.246;2022-10-22T09:06:13;15.70;99.90
68051;DHT22;54839;51.364;7.246;2022-10-22T09:08:41;15.70;99.90
68051;DHT22;54839;51.364;7.246;2022-10-22T09:11:16;15.70;99.90
68051;DHT22;54839;51.364;7.246;2022-10-22T09:13:45;15.80;99.90
68051;DHT22;54839;51.364;7.246;2022-10-22T09:16:16;15.80;99.90
68051;DHT22;54839;51.364;7.246;2022-10-22T09:18:54;15.90;99.90
68051;DHT22;54839;51.364;7.246;2022-10-22T09:26:48;16.10;99.90
68051;DHT22;54839;51.364;7.246;2022-10-22T09:29:18;16.10;99.90
68051;DHT22;54839;51.364;7.246;2022-10-22T09:31:45;16.20;99.90
68051;DHT22;54839;51.364;7.246;2022-10-22T09:34:14;16.30;99.90
68051;DHT22;54839;51.364;7.246;2022-10-22T09:36:39;16.40;99.90
68051;DHT22;54839;51.364;7.246;2022-10-22T09:39:21;16.50;99.90
68051;DHT22;54839;51.364;7.246;2022-10-22T09:41:48;16.40;99.90
68051;DHT22;54839;51.364;7.246;2022-10-22T09:44:13;16.30;99.90
68051;DHT22;54839;51.364;7.246;2022-10-22T09:46:39;16.40;99.90
68051;DHT22;54839;51.364;7.246;2022-10-22T09:49:14;16.70;99.90
68051;DHT22;54839;51.364;7.246;2022-10-22T09:51:53;16.60;99.90
68051;DHT22;54839;51.364;7.246;2022-10-22T09:54:38;16.70;99.90
68051;DHT22;54839;51.364;7.246;2022-10-22T09:57:15;16.80;99.90
68051;DHT22;54839;51.364;7.246;2022-10-22T09:59:44;17.00;99.90
68051;DHT22;54839;51.364;7.246;2022-10-22T10:02:17;17.00;99.90
68051;DHT22;54839;51.364;7.246;2022-10-22T10:04:56;16.60;99.90
68051;DHT22;54839;51.364;7.246;2022-10-22T10:07:30;16.50;99.90
68051;DHT22;54839;51.364;7.246;2022-10-22T10:09:56;16.40;99.90
68051;DHT22;54839;51.364;7.246;2022-10-22T10:15:19;16.40;99.90
68051;DHT22;54839;51.364;7.246;2022-10-22T10:20:55;16.30;99.90
68051;DHT22;54839;51.364;7.246;2022-10-22T10:23:55;16.40;99.90
68051;DHT22;54839;51.364;7.246;2022-10-22T10:29:22;16.10;99.90
68051;DHT22;54839;51.364;7.246;2022-10-22T10:34:42;16.20;99.90
68051;DHT22;54839;51.364;7.246;2022-10-22T10:37:28;16.30;99.90
68051;DHT22;54839;51.364;7.246;2022-10-22T10:43:08;16.20;99.90
68051;DHT22;54839;51.364;7.246;2022-10-22T10:48:37;16.10;99.90
68051;DHT22;54839;51.364;7.246;2022-10-22T10:51:23;16.10;99.90
68051;DHT22;54839;51.364;7.246;2022-10-22T10:56:49;16.20;99.90
68051;DHT22;54839;51.364;7.246;2022-10-22T10:59:35;16.30;99.90
68051;DHT22;54839;51.364;7.246;2022-10-22T11:02:28;16.50;99.90
68051;DHT22;54839;51.364;7.246;2022-10-22T11:05:21;16.50;99.90
68051;DHT22;54839;51.364;7.246;2022-10-22T11:08:13;16.70;99.90
68051;DHT22;54839;51.364;7.246;2022-10-22T11:10:50;16.60;99.90
68051;DHT22;54839;51.364;7.246;2022-10-22T11:13:26;16.70;99.90
68051;DHT22;54839;51.364;7.246;2022-10-22T11:16:13;16.70;99.90
68051;DHT22;54839;51.364;7.246;2022-10-22T11:19:08;16.50;99.90
68051;DHT22;54839;51.364;7.246;2022-10-22T11:21:41;16.70;99.90
68051;DHT22;54839;51.364;7.246;2022-10-22T11:24:19;16.90;99.90
68051;DHT22;54839;51.364;7.246;2022-10-22T11:26:55;17.00;99.90
68051;DHT22;54839;51.364;7.246;2022-10-22T11:29:29;17.10;99.90
68051;DHT22;54839;51.364;7.246;2022-10-22T11:31:57;17.00;99.90
68051;DHT22;54839;51.364;7.246;2022-10-22T11:34:28;17.00;99.90
68051;DHT22;54839;51.364;7.246;2022-10-22T11:36:56;16.70;99.90
68051;DHT22;54839;51.364;7.246;2022-10-22T11:39:51;16.80;99.90
68051;DHT22;54839;51.364;7.246;2022-10-22T11:42:31;16.60;99.90
68051;DHT22;54839;51.364;7.246;2022-10-22T11:45:04;16.50;99.90
68051;DHT22;54839;51.364;7.246;2022-10-22T11:47:33;16.60;99.90
68051;DHT22;54839;51.364;7.246;2022-10-22T11:55:47;16.20;99.90
68051;DHT22;54839;51.364;7.246;2022-10-22T12:03:41;16.50;99.90
68051;DHT22;54839;51.364;7.246;2022-10-22T12:11:45;16.70;99.90
68051;DHT22;54839;51.364;7.246;2022-10-22T12:14:33;16.70;99.90
68051;DHT22;54839;51.364;7.246;2022-10-22T12:17:04;16.60;99.90
68051;DHT22;54839;51.364;7.246;2022-10-22T12:19:40;16.30;99.90
68051;DHT22;54839;51.364;7.246;2022-10-22T12:22:20;16.30;99.90
68051;DHT22;54839;51.364;7.246;2022-10-22T12:24:51;16.30;99.90
68051;DHT22;54839;51.364;7.246;2022-10-22T12:27:33;16.30;99.90
68051;DHT22;54839;51.364;7.246;2022-10-22T12:30:00;16.30;99.90
68051;DHT22;54839;51.364;7.246;2022-10-22T12:32:37;16.30;99.90
68051;DHT22;54839;51.364;7.246;2022-10-22T12:35:15;16.30;99.90
68051;DHT22;54839;51.364;7.246;2022-10-22T12:37:41;16.50;99.90
68051;DHT22;54839;51.364;7.246;2022-10-22T12:40:17;16.60;99.90
68051;DHT22;54839;51.364;7.246;2022-10-22T12:42:54;16.40;99.90
68051;DHT22;54839;51.364;7.246;2022-10-22T12:45:21;16.40;99.90
68051;DHT22;54839;51.364;7.246;2022-10-22T12:47:49;16.40;99.90
68051;DHT22;54839;51.364;7.246;2022-10-22T12:50:21;16.50;99.90
68051;DHT22;54839;51.364;7.246;2022-10-22T12:52:48;16.60;99.90
68051;DHT22;54839;51.364;7.246;2022-10-22T12:55:18;16.70;99.90
68051;DHT22;54839;51.364;7.246;2022-10-22T12:57:47;16.70;99.90
68051;DHT22;54839;51.364;7.246;2022-10-22T13:00:31;16.80;99.90
68051;DHT22;54839;51.364;7.246;2022-10-22T13:03:00;16.70;99.90
68051;DHT22;54839;51.364;7.246;2022-10-22T13:05:32;16.70;99.90
68051;DHT22;54839;51.364;7.246;2022-10-22T13:08:11;16.70;99.90
68051;DHT22;54839;51.364;7.246;2022-10-22T13:10:39;16.60;99.90
68051;DHT22;54839;51.364;7.246;2022-10-22T13:13:05;16.50;99.90
68051;DHT22;54839;51.364;7.246;2022-10-22T13:15:32;16.50;99.90
68051;DHT22;54839;51.364;7.246;2022-10-22T13:18:03;16.60;99.90
68051;DHT22;54839;51.364;7.246;2022-10-22T13:20:29;16.60;99.90
68051;DHT22;54839;51.364;7.246;2022-10-22T13:22:59;16.60;99.90
68051;DHT22;54839;51.364;7.246;2022-10-22T13:25:29;16.50;99.90
68051;DHT22;54839;51.364;7.246;2022-10-22T13:30:35;16.60;99.90
68051;DHT22;54839;51.364;7.246;2022-10-22T13:33:05;16.70;99.90
68051;DHT22;54839;51.364;7.246;2022-10-22T13:35:35;17.00;99.90
68051;DHT22;54839;51.364;7.246;2022-10-22T13:38:02;16.90;99.90
68051;DHT22;54839;51.364;7.246;2022-10-22T13:40:28;16.80;99.90
68051;DHT22;54839;51.364;7.246;2022-10-22T13:42:53;16.90;99.90
68051;DHT22;54839;51.364;7.246;2022-10-22T13:45:19;17.10;99.90
68051;DHT22;54839;51.364;7.246;2022-10-22T13:47:48;17.00;99.90
68051;DHT22;54839;51.364;7.246;2022-10-22T13:50:17;16.80;99.90
68051;DHT22;54839;51.364;7.246;2022-10-22T13:52:53;16.80;99.90
68051;DHT22;54839;51.364;7.246;2022-10-22T13:55:25;16.70;99.90
68051;DHT22;54839;51.364;7.246;2022-10-22T13:57:55;16.70;99.90
68051;DHT22;54839;51.364;7.246;2022-10-22T14:00:21;16.70;99.90
68051;DHT22;54839;51.364;7.246;2022-10-22T14:02:51;16.70;99.90
68051;DHT22;54839;51.364;7.246;2022-10-22T14:05:18;16.60;99.90
68051;DHT22;54839;51.364;7.246;2022-10-22T14:07:44;16.60;99.90
68051;DHT22;54839;51.364;7.246;2022-10-22T14:10:18;16.60;99.90
68051;DHT22;54839;51.364;7.246;2022-10-22T14:12:45;16.60;99.90
68051;DHT22;54839;51.364;7.246;2022-10-22T14:15:13;16.50;99.90
68051;DHT22;54839;51.364;7.246;2022-10-22T14:17:41;16.60;99.90
68051;DHT22;54839;51.364;7.246;2022-10-22T14:20:16;16.60;99.90
68051;DHT22;54839;51.364;7.246;2022-10-22T14:22:44;16.70;99.90
68051;DHT22;54839;51.364;7.246;2022-10-22T14:25:13;16.70;99.90
68051;DHT22;54839;51.364;7.246;2022-10-22T14:27:39;16.70;99.90
68051;DHT22;54839;51.364;7.246;2022-10-22T14:30:05;16.80;99.90
68051;DHT22;54839;51.364;7.246;2022-10-22T14:32:31;16.90;99.90
68051;DHT22;54839;51.364;7.246;2022-10-22T14:34:56;16.90;99.90
68051;DHT22;54839;51.364;7.246;2022-10-22T14:37:23;16.90;99.90
68051;DHT22;54839;51.364;7.246;2022-10-22T14:39:49;16.90;99.90
68051;DHT22;54839;51.364;7.246;2022-10-22T14:42:25;16.90;99.90
68051;DHT22;54839;51.364;7.246;2022-10-22T14:44:50;16.90;99.90
68051;DHT22;54839;51.364;7.246;2022-10-22T14:47:16;16.80;99.90
68051;DHT22;54839;51.364;7.246;2022-10-22T14:49:41;16.80;99.90
68051;DHT22;54839;51.364;7.246;2022-10-22T14:52:07;16.70;99.90
68051;DHT22;54839;51.364;7.246;2022-10-22T14:54:33;16.70;99.90
68051;DHT22;54839;51.364;7.246;2022-10-22T14:57:00;16.60;99.90
68051;DHT22;54839;51.364;7.246;2022-10-22T14:59:26;16.50;99.90
68051;DHT22;54839;51.364;7.246;2022-10-22T15:01:51;16.70;99.90
68051;DHT22;54839;51.364;7.246;2022-10-22T15:04:17;16.60;99.90
68051;DHT22;54839;51.364;7.246;2022-10-22T15:06:43;16.60;99.90
68051;DHT22;54839;51.364;7.246;2022-10-22T15:09:08;16.50;99.90
68051;DHT22;54839;51.364;7.246;2022-10-22T15:11:34;16.60;99.90
68051;DHT22;54839;51.364;7.246;2022-10-22T15:13:59;16.60;99.90
68051;DHT22;54839;51.364;7.246;2022-10-22T15:16:25;16.60;99.90
68051;DHT22;54839;51.364;7.246;2022-10-22T15:18:50;16.60;99.90
68051;DHT22;54839;51.364;7.246;2022-10-22T15:21:20;16.60;99.90
68051;DHT22;54839;51.364;7.246;2022-10-22T15:23:46;16.60;99.90
68051;DHT22;54839;51.364;7.246;2022-10-22T15:26:12;16.60;99.90
68051;DHT22;54839;51.364;7.246;2022-10-22T15:28:39;16.60;99.90
68051;DHT22;54839;51.364;7.246;2022-10-22T15:31:05;16.80;99.90
68051;DHT22;54839;51.364;7.246;2022-10-22T15:33:31;16.90;99.90
68051;DHT22;54839;51.364;7.246;2022-10-22T15:35:57;16.90;99.90
68051;DHT22;54839;51.364;7.246;2022-10-22T15:38:28;16.90;99.90
68051;DHT22;54839;51.364;7.246;2022-10-22T15:41:04;16.80;99.90
68051;DHT22;54839;51.364;7.246;2022-10-22T15:43:30;16.80;99.90
68051;DHT22;54839;51.364;7.246;2022-10-22T15:46:09;16.70;99.90
68051;DHT22;54839;51.364;7.246;2022-10-22T15:48:34;16.60;99.90
68051;DHT22;54839;51.364;7.246;2022-10-22T15:51:03;16.30;99.90
68051;DHT22;54839;51.364;7.246;2022-10-22T15:53:31;16.20;99.90
68051;DHT22;54839;51.364;7.246;2022-10-22T15:55:56;16.10;99.90
68051;DHT22;54839;51.364;7.246;2022-10-22T15:58:22;15.90;99.90
68051;DHT22;54839;51.364;7.246;2022-10-22T16:00:47;15.80;99.90
68051;DHT22;54839;51.364;7.246;2022-10-22T16:03:13;15.70;99.90
68051;DHT22;54839;51.364;7.246;2022-10-22T16:05:38;15.60;99.90
68051;DHT22;54839;51.364;7.246;2022-10-22T16:08:04;15.40;99.90
68051;DHT22;54839;51.364;7.246;2022-10-22T16:10:29;15.40;99.90
68051;DHT22;54839;51.364;7.246;2022-10-22T16:12:55;15.20;99.90
68051;DHT22;54839;51.364;7.246;2022-10-22T16:15:20;15.10;99.90
68051;DHT22;54839;51.364;7.246;2022-10-22T16:17:46;15.10;99.90
68051;DHT22;54839;51.364;7.246;2022-10-22T16:20:11;14.90;99.90
68051;DHT22;54839;51.364;7.246;2022-10-22T16:22:37;14.90;99.90
68051;DHT22;54839;51.364;7.246;2022-10-22T16:25:03;14.80;99.90
68051;DHT22;54839;51.364;7.246;2022-10-22T16:27:28;14.70;99.90
68051;DHT22;54839;51.364;7.246;2022-10-22T16:29:54;14.60;99.90
68051;DHT22;54839;51.364;7.246;2022-10-22T16:32:19;14.60;99.90
68051;DHT22;54839;51.364;7.246;2022-10-22T16:34:45;14.40;99.90
68051;DHT22;54839;51.364;7.246;2022-10-22T16:37:10;14.50;99.90
68051;DHT22;54839;51.364;7.246;2022-10-22T16:39:36;14.50;99.90
68051;DHT22;54839;51.364;7.246;2022-10-22T16:42:01;14.20;99.90
68051;DHT22;54839;51.364;7.246;2022-10-22T16:44:27;14.20;99.90
68051;DHT22;54839;51.364;7.246;2022-10-22T16:46:52;14.10;99.90
68051;DHT22;54839;51.364;7.246;2022-10-22T16:49:18;14.00;99.90
68051;DHT22;54839;51.364;7.246;2022-10-22T16:51:43;13.90;99.90
68051;DHT22;54839;51.364;7.246;2022-10-22T16:54:10;13.80;99.90
68051;DHT22;54839;51.364;7.246;2022-10-22T16:56:36;13.80;99.90
68051;DHT22;54839;51.364;7.246;2022-10-22T16:59:02;13.70;99.90
68051;DHT22;54839;51.364;7.246;2022-10-22T17:01:27;13.60;99.90